createdAt,value
2022-12-09T00:00:38.807Z,-0.93
2022-12-09T01:03:06.361Z,-1.26
2022-12-09T01:04:25.599Z,-1.23
2022-12-09T01:22:55.779Z,-1.37
2022-12-09T01:41:47.328Z,-1.42
2022-12-09T01:50:25.327Z,-1.37
2022-12-09T01:51:20.852Z,-1.37
2022-12-09T01:52:26.414Z,-1.36
2022-12-09T01:53:33.334Z,-1.34
2022-12-09T01:54:43.108Z,-1.32
2022-12-09T01:55:50.033Z,-1.32
2022-12-09T01:56:55.512Z,-1.27
2022-12-09T01:58:00.199Z,-1.25
2022-12-09T01:59:14.751Z,-1.24
2022-12-09T02:00:20.367Z,-1.23
2022-12-09T02:01:24.711Z,-1.22
2022-12-09T02:02:30.536Z,-1.22
2022-12-09T02:03:35.245Z,-1.20
2022-12-09T02:04:44.763Z,-1.19
2022-12-09T02:05:51.264Z,-1.19
2022-12-09T02:06:56.849Z,-1.19
2022-12-09T02:08:01.367Z,-1.16
2022-12-09T02:09:07.461Z,-1.16
2022-12-09T02:10:15.247Z,-1.15
2022-12-09T02:11:45.290Z,-1.15
2022-12-09T02:12:53.933Z,-1.16
2022-12-09T02:14:14.668Z,-1.13
2022-12-09T02:15:26.137Z,-1.16
2022-12-09T02:16:34.799Z,-1.15
2022-12-09T02:17:51.480Z,-1.15
2022-12-09T02:20:40.306Z,-1.15
2022-12-09T02:21:47.842Z,-1.13
2022-12-09T02:23:06.796Z,-1.12
2022-12-09T02:24:20.106Z,-1.13
2022-12-09T07:09:19.949Z,-0.55
2022-12-09T07:10:29.051Z,-0.51
2022-12-09T07:11:33.621Z,-0.49
2022-12-09T07:12:41.397Z,-0.46
2022-12-09T07:13:47.403Z,-0.43
2022-12-09T07:14:51.615Z,-0.42
2022-12-09T08:43:15.276Z,-0.05
2022-12-09T08:44:21.019Z,-0.06
2022-12-09T08:45:25.562Z,-0.03
2022-12-09T08:46:31.537Z,-0.02
2022-12-09T14:23:04.750Z,0.31
2022-12-09T14:24:14.406Z,0.35
2022-12-09T14:25:29.942Z,0.36
2022-12-09T14:26:44.818Z,0.39
2022-12-09T14:28:16.035Z,0.42
2022-12-09T14:29:48.282Z,0.42
2022-12-09T14:31:08.027Z,0.44
2022-12-09T14:32:23.052Z,0.45
2022-12-09T14:33:35.908Z,0.45
2022-12-09T14:34:43.186Z,0.46
2022-12-09T14:35:50.079Z,0.48
2022-12-09T14:39:53.741Z,0.49
2022-12-09T14:41:17.738Z,0.53
2022-12-09T14:42:27.535Z,0.54
2022-12-09T14:43:48.611Z,0.54
2022-12-09T14:45:12.411Z,0.54
2022-12-09T14:46:24.015Z,0.55
2022-12-09T14:47:31.359Z,0.54
2022-12-09T14:48:40.287Z,0.54
2022-12-09T15:48:01.358Z,0.53
2022-12-09T15:49:20.387Z,0.39
2022-12-09T15:52:00.099Z,0.44
2022-12-09T15:53:33.825Z,0.46
2022-12-09T15:54:43.197Z,0.49
2022-12-09T15:55:51.697Z,0.51
2022-12-09T15:57:05.176Z,0.50
2022-12-09T15:58:50.415Z,0.55
2022-12-09T15:59:42.954Z,0.56
2022-12-09T16:00:51.688Z,0.56
2022-12-09T16:02:01.412Z,0.59
2022-12-09T16:03:18.237Z,0.61
2022-12-09T16:04:25.437Z,0.62
2022-12-09T16:05:34.913Z,0.63
2022-12-09T16:06:38.126Z,0.63
2022-12-09T16:07:54.068Z,0.63
2022-12-09T16:09:05.163Z,0.65
2022-12-09T16:10:17.102Z,0.64
2022-12-09T16:12:39.123Z,0.64
2022-12-09T16:13:20.361Z,0.64
2022-12-09T16:14:25.424Z,0.66
2022-12-09T17:20:50.894Z,0.45
2022-12-09T17:23:42.232Z,0.54
2022-12-09T17:59:36.448Z,0.48
